createdAt,value
2017-04-07T00:00:22.589Z,0
2017-04-07T00:01:03.131Z,0
2017-04-07T00:01:43.556Z,0
2017-04-07T00:02:24.088Z,0
2017-04-07T00:03:04.532Z,0
2017-04-07T00:03:45.027Z,0
2017-04-07T00:04:25.539Z,0
2017-04-07T00:05:06.015Z,0
2017-04-07T00:05:46.496Z,0
2017-04-07T00:06:27.015Z,0
2017-04-07T00:07:07.505Z,0
2017-04-07T00:07:48.042Z,0
2017-04-07T00:08:28.517Z,0
2017-04-07T00:09:09.047Z,0
2017-04-07T00:09:49.536Z,0
2017-04-07T00:10:30.081Z,0
2017-04-07T00:11:10.538Z,0
2017-04-07T00:11:51.076Z,0
2017-04-07T00:12:31.547Z,0
2017-04-07T00:13:12.056Z,0
2017-04-07T00:13:52.571Z,0
2017-04-07T00:14:33.047Z,0
2017-04-07T00:15:13.538Z,0
2017-04-07T00:15:54.053Z,0
2017-04-07T00:16:34.537Z,0
2017-04-07T00:17:15.081Z,0
2017-04-07T00:17:55.563Z,0
2017-04-07T00:18:36.105Z,0
2017-04-07T00:19:16.581Z,0
2017-04-07T00:19:57.073Z,0
2017-04-07T00:20:37.542Z,0
2017-04-07T00:21:18.048Z,0
2017-04-07T00:21:58.531Z,0
2017-04-07T00:22:39.060Z,0
2017-04-07T00:23:19.547Z,0
2017-04-07T00:24:00.017Z,0
2017-04-07T00:24:40.547Z,0
2017-04-07T00:25:21.012Z,0
2017-04-07T00:26:01.513Z,0
2017-04-07T00:26:41.951Z,0
2017-04-07T00:27:22.509Z,0
2017-04-07T00:28:02.921Z,0
2017-04-07T00:28:43.428Z,0
2017-04-07T00:29:23.899Z,0
2017-04-07T00:30:04.469Z,0
2017-04-07T00:30:44.985Z,0
2017-04-07T00:31:25.443Z,0
2017-04-07T00:32:05.989Z,0
2017-04-07T00:32:46.459Z,0
2017-04-07T00:33:26.968Z,0
2017-04-07T00:34:07.469Z,0
2017-04-07T00:34:47.971Z,0
2017-04-07T00:35:28.458Z,0
2017-04-07T00:36:08.939Z,0
2017-04-07T00:36:49.429Z,0
2017-04-07T00:37:29.958Z,0
2017-04-07T00:38:10.408Z,0
2017-04-07T00:38:50.943Z,0
2017-04-07T00:39:31.390Z,0
2017-04-07T00:40:11.938Z,0
2017-04-07T00:40:52.381Z,0
2017-04-07T00:41:32.870Z,0
2017-04-07T00:42:13.350Z,0
2017-04-07T00:42:53.802Z,0
2017-04-07T00:43:34.317Z,0
2017-04-07T00:44:14.811Z,0
2017-04-07T00:44:55.314Z,0
2017-04-07T00:45:35.824Z,0
2017-04-07T00:46:16.354Z,0
2017-04-07T00:46:56.819Z,0
2017-04-07T00:47:37.317Z,0
2017-04-07T00:48:17.849Z,0
2017-04-07T00:48:58.326Z,0
2017-04-07T00:49:38.798Z,0
2017-04-07T00:50:19.351Z,0
2017-04-07T00:50:59.774Z,0
2017-04-07T00:51:40.574Z,0
2017-04-07T00:52:21.040Z,0
2017-04-07T00:53:01.559Z,0
2017-04-07T00:53:42.060Z,0
2017-04-07T00:54:22.537Z,0
2017-04-07T00:55:03.061Z,0
2017-04-07T00:55:43.502Z,0
2017-04-07T00:56:24.021Z,0
2017-04-07T00:57:04.480Z,0
2017-04-07T00:57:44.956Z,0
2017-04-07T01:00:13.410Z,0
2017-04-07T01:00:53.899Z,0
2017-04-07T01:01:34.436Z,0
2017-04-07T01:02:14.895Z,0
2017-04-07T01:02:55.391Z,0
2017-04-07T01:03:35.907Z,0
2017-04-07T01:04:19.987Z,0
2017-04-07T01:05:00.463Z,0
2017-04-07T01:05:40.930Z,0
2017-04-07T01:06:21.424Z,0
2017-04-07T01:07:01.927Z,0
2017-04-07T01:07:42.435Z,0
2017-04-07T01:08:22.938Z,0
2017-04-07T01:09:03.438Z,0
2017-04-07T01:09:43.929Z,0
2017-04-07T01:10:24.446Z,0
2017-04-07T01:11:04.994Z,0
2017-04-07T01:11:45.430Z,0
2017-04-07T01:12:25.870Z,0
2017-04-07T01:13:06.351Z,0
2017-04-07T01:13:46.821Z,0
2017-04-07T01:14:27.340Z,0
2017-04-07T01:15:07.827Z,0
2017-04-07T01:15:48.306Z,0
2017-04-07T01:16:28.779Z,0
2017-04-07T01:17:09.255Z,0
2017-04-07T01:17:49.779Z,0
2017-04-07T01:18:30.275Z,0
2017-04-07T01:19:10.754Z,0
2017-04-07T01:19:51.337Z,0
2017-04-07T01:20:31.724Z,0
2017-04-07T01:21:12.193Z,0
2017-04-07T01:21:53.301Z,0
2017-04-07T01:22:33.180Z,0
2017-04-07T01:23:13.699Z,0
2017-04-07T01:23:54.166Z,0
2017-04-07T01:24:34.667Z,0
2017-04-07T01:25:15.159Z,0
2017-04-07T01:25:55.668Z,0
2017-04-07T01:26:36.169Z,0
2017-04-07T01:27:16.689Z,0
2017-04-07T01:27:57.141Z,0
2017-04-07T01:28:37.662Z,0
2017-04-07T01:29:18.139Z,0
2017-04-07T01:29:58.614Z,0
2017-04-07T01:30:39.158Z,0
2017-04-07T01:31:19.637Z,0
2017-04-07T01:32:00.119Z,0
2017-04-07T01:32:40.616Z,0
2017-04-07T01:33:21.092Z,0
2017-04-07T01:34:01.617Z,0
2017-04-07T01:34:42.080Z,0
2017-04-07T01:35:22.544Z,0
2017-04-07T01:36:03.077Z,0
2017-04-07T01:36:43.576Z,0
2017-04-07T01:37:24.042Z,0
2017-04-07T01:38:04.532Z,0
2017-04-07T01:38:45.003Z,0
2017-04-07T01:39:25.525Z,0
2017-04-07T01:40:06.011Z,0
2017-04-07T01:40:46.503Z,0
2017-04-07T01:41:27.021Z,0
2017-04-07T01:42:07.524Z,0
2017-04-07T01:42:48.029Z,0
2017-04-07T01:43:28.492Z,0
2017-04-07T01:44:09.004Z,0
2017-04-07T01:44:49.478Z,0
2017-04-07T01:45:29.977Z,0
2017-04-07T01:46:10.454Z,0
2017-04-07T01:46:50.936Z,0
2017-04-07T01:47:31.429Z,0
2017-04-07T01:48:11.924Z,0
2017-04-07T01:48:52.451Z,0
2017-04-07T01:49:32.944Z,0
2017-04-07T01:50:13.393Z,0
2017-04-07T01:50:53.893Z,0
2017-04-07T01:51:34.361Z,0
2017-04-07T01:52:14.885Z,0
2017-04-07T01:52:55.386Z,0
2017-04-07T01:53:35.864Z,0
2017-04-07T01:54:16.357Z,0
2017-04-07T01:54:56.888Z,0
2017-04-07T01:55:37.395Z,0
2017-04-07T01:58:10.982Z,0
2017-04-07T01:58:55.319Z,0
2017-04-07T01:59:35.828Z,0
2017-04-07T02:00:16.327Z,0
2017-04-07T02:00:56.812Z,0
2017-04-07T02:01:37.299Z,0
2017-04-07T02:02:17.789Z,0
2017-04-07T02:02:58.341Z,0
2017-04-07T02:03:38.835Z,0
2017-04-07T02:04:19.351Z,0
2017-04-07T02:04:59.804Z,0
2017-04-07T02:05:40.297Z,0
2017-04-07T02:06:20.822Z,0
2017-04-07T02:07:01.292Z,0
2017-04-07T02:07:41.790Z,0
2017-04-07T02:08:22.266Z,0
2017-04-07T02:09:02.766Z,0
2017-04-07T02:09:43.332Z,0
2017-04-07T02:10:23.798Z,0
2017-04-07T02:11:04.289Z,0
2017-04-07T02:11:44.760Z,0
2017-04-07T02:12:25.278Z,0
2017-04-07T02:13:05.745Z,0
2017-04-07T02:13:46.260Z,0
2017-04-07T02:14:26.742Z,0
2017-04-07T02:15:07.295Z,0
2017-04-07T02:15:47.804Z,0
2017-04-07T02:16:28.213Z,0
2017-04-07T02:17:08.739Z,0
2017-04-07T02:17:49.250Z,0
2017-04-07T02:18:29.708Z,0
2017-04-07T02:19:10.202Z,0
2017-04-07T02:19:50.722Z,0
2017-04-07T02:20:31.179Z,0
2017-04-07T02:21:11.692Z,0
2017-04-07T02:21:52.157Z,0
2017-04-07T02:22:32.619Z,0
2017-04-07T02:23:13.141Z,0
2017-04-07T02:23:53.636Z,0
2017-04-07T02:24:34.095Z,0
2017-04-07T02:25:14.581Z,0
2017-04-07T02:25:55.063Z,0
2017-04-07T02:26:35.578Z,0
2017-04-07T02:27:16.114Z,0
2017-04-07T02:27:56.521Z,0
2017-04-07T02:28:37.029Z,0
2017-04-07T02:29:17.516Z,0
2017-04-07T02:29:58.006Z,0
2017-04-07T02:30:38.493Z,0
2017-04-07T02:31:18.984Z,0
2017-04-07T02:31:59.485Z,0
2017-04-07T02:32:39.960Z,0
2017-04-07T02:33:20.448Z,0
2017-04-07T02:34:00.938Z,0
2017-04-07T02:34:41.435Z,0
2017-04-07T02:35:21.953Z,0
2017-04-07T02:36:02.514Z,0
2017-04-07T02:36:42.961Z,0
2017-04-07T02:37:23.427Z,0
2017-04-07T02:38:03.923Z,0
2017-04-07T02:38:44.406Z,0
2017-04-07T02:39:24.927Z,0
2017-04-07T02:40:05.367Z,0
2017-04-07T02:40:45.868Z,0
2017-04-07T02:41:26.316Z,0
2017-04-07T02:42:06.831Z,0
2017-04-07T02:42:47.317Z,0
2017-04-07T02:43:27.812Z,0
2017-04-07T02:44:08.291Z,0
2017-04-07T02:44:48.732Z,0
2017-04-07T02:45:29.205Z,0
2017-04-07T02:46:09.700Z,0
2017-04-07T02:46:50.250Z,0
2017-04-07T02:47:30.706Z,0
2017-04-07T02:48:11.193Z,0
2017-04-07T02:48:51.683Z,0
2017-04-07T02:49:32.165Z,0
2017-04-07T02:50:12.641Z,0
2017-04-07T02:50:53.141Z,0
2017-04-07T02:51:33.650Z,0
2017-04-07T02:52:14.109Z,0
2017-04-07T02:52:54.621Z,0
2017-04-07T02:53:35.114Z,0
2017-04-07T02:54:15.571Z,0
2017-04-07T02:54:56.068Z,0
2017-04-07T02:55:36.530Z,0
2017-04-07T02:56:17.040Z,0
2017-04-07T02:56:57.530Z,0
2017-04-07T02:57:37.990Z,0
2017-04-07T02:58:18.519Z,0
2017-04-07T02:58:59.058Z,0
2017-04-07T02:59:39.536Z,0
2017-04-07T03:00:19.992Z,0
2017-04-07T03:01:00.502Z,0
2017-04-07T03:01:40.985Z,0
2017-04-07T03:02:21.492Z,0
2017-04-07T03:03:01.967Z,0
2017-04-07T03:03:42.434Z,0
2017-04-07T03:04:22.930Z,0
2017-04-07T03:05:03.459Z,0
2017-04-07T03:05:43.907Z,0
2017-04-07T03:06:24.425Z,0
2017-04-07T03:07:04.908Z,0
2017-04-07T03:07:45.423Z,0
2017-04-07T03:08:25.899Z,0
2017-04-07T03:09:06.601Z,0
2017-04-07T03:09:47.014Z,0
2017-04-07T03:10:27.498Z,0
2017-04-07T03:11:07.970Z,0
2017-04-07T03:11:48.480Z,0
2017-04-07T03:12:28.952Z,0
2017-04-07T03:13:09.436Z,0
2017-04-07T03:13:49.919Z,0
2017-04-07T03:14:30.461Z,0
2017-04-07T03:15:10.968Z,0
2017-04-07T03:15:51.442Z,0
2017-04-07T03:16:31.930Z,0
2017-04-07T03:17:12.416Z,0
2017-04-07T03:17:52.902Z,0
2017-04-07T03:18:33.385Z,0
2017-04-07T03:19:13.941Z,0
2017-04-07T03:19:54.425Z,0
2017-04-07T03:20:34.906Z,0
2017-04-07T03:21:15.379Z,0
2017-04-07T03:21:55.852Z,0
2017-04-07T03:22:36.332Z,0
2017-04-07T03:23:16.840Z,0
2017-04-07T03:23:57.339Z,0
2017-04-07T03:24:37.853Z,0
2017-04-07T03:25:18.394Z,0
2017-04-07T03:25:58.877Z,0
2017-04-07T03:26:39.368Z,0
2017-04-07T03:27:19.869Z,0
2017-04-07T03:28:00.371Z,0
2017-04-07T03:28:40.870Z,0
2017-04-07T03:29:21.347Z,0
2017-04-07T03:30:01.817Z,0
2017-04-07T03:30:42.358Z,0
2017-04-07T03:31:22.844Z,0
2017-04-07T03:32:03.328Z,0
2017-04-07T03:32:43.851Z,0
2017-04-07T03:33:24.273Z,0
2017-04-07T03:34:04.792Z,0
2017-04-07T03:34:45.269Z,0
2017-04-07T03:35:25.763Z,0
2017-04-07T03:36:06.227Z,0
2017-04-07T03:36:46.800Z,0
2017-04-07T03:37:27.271Z,0
2017-04-07T03:38:07.773Z,0
2017-04-07T03:38:48.277Z,0
2017-04-07T03:39:28.745Z,0
2017-04-07T03:40:09.269Z,0
2017-04-07T03:40:49.761Z,0
2017-04-07T03:41:30.249Z,0
2017-04-07T03:42:10.754Z,0
2017-04-07T03:42:51.243Z,0
2017-04-07T03:43:31.737Z,0
2017-04-07T03:44:12.235Z,0
2017-04-07T03:44:52.723Z,0
2017-04-07T03:45:33.217Z,0
2017-04-07T03:46:13.665Z,0
2017-04-07T03:46:54.140Z,0
2017-04-07T03:47:34.681Z,0
2017-04-07T03:48:15.191Z,0
2017-04-07T03:48:55.666Z,0
2017-04-07T03:49:36.162Z,0
2017-04-07T03:50:16.640Z,0
2017-04-07T03:50:57.097Z,0
2017-04-07T03:51:37.623Z,0
2017-04-07T03:52:18.118Z,0
2017-04-07T03:52:58.611Z,0
2017-04-07T03:53:39.099Z,0
2017-04-07T03:54:19.554Z,0
2017-04-07T03:55:00.073Z,0
2017-04-07T03:55:40.565Z,0
2017-04-07T03:56:21.045Z,0
2017-04-07T03:57:01.543Z,0
2017-04-07T03:57:41.987Z,0
2017-04-07T03:58:22.518Z,0
2017-04-07T03:59:03.018Z,0
2017-04-07T03:59:43.521Z,0
2017-04-07T04:00:23.985Z,0
2017-04-07T04:01:04.506Z,0
2017-04-07T04:01:44.976Z,0
2017-04-07T04:02:25.488Z,0
2017-04-07T04:03:05.942Z,0
2017-04-07T04:03:46.442Z,0
2017-04-07T04:04:26.918Z,0
2017-04-07T04:05:07.476Z,0
2017-04-07T04:05:47.910Z,0
2017-04-07T04:06:28.390Z,0
2017-04-07T04:07:08.875Z,0
2017-04-07T04:07:49.377Z,0
2017-04-07T04:08:29.847Z,0
2017-04-07T04:09:10.339Z,0
2017-04-07T04:09:50.830Z,0
2017-04-07T04:10:31.346Z,0
2017-04-07T04:11:11.761Z,0
2017-04-07T04:11:52.281Z,0
2017-04-07T04:12:32.715Z,0
2017-04-07T04:13:13.222Z,0
2017-04-07T04:13:53.744Z,0
2017-04-07T04:14:34.167Z,0
2017-04-07T04:15:14.675Z,0
2017-04-07T04:15:55.176Z,0
2017-04-07T04:16:35.705Z,0
2017-04-07T04:17:16.227Z,0
2017-04-07T04:17:56.791Z,0
2017-04-07T04:18:37.209Z,0
2017-04-07T04:19:17.697Z,0
2017-04-07T04:19:58.207Z,0
2017-04-07T04:20:38.653Z,0
2017-04-07T04:21:19.151Z,0
2017-04-07T04:21:59.681Z,0
2017-04-07T04:22:40.132Z,4
2017-04-07T04:23:20.638Z,4
2017-04-07T04:24:01.142Z,4
2017-04-07T04:24:41.657Z,0
2017-04-07T04:25:22.139Z,0
2017-04-07T04:26:02.608Z,4
2017-04-07T04:26:43.160Z,4
2017-04-07T04:27:23.583Z,4
2017-04-07T04:28:04.098Z,4
2017-04-07T04:28:44.577Z,4
2017-04-07T04:29:25.035Z,4
2017-04-07T04:30:05.619Z,4
2017-04-07T04:30:46.089Z,8
2017-04-07T04:31:26.597Z,8
2017-04-07T04:32:07.096Z,8
2017-04-07T04:32:47.570Z,12
2017-04-07T04:33:28.054Z,12
2017-04-07T04:34:08.516Z,12
2017-04-07T04:34:49.004Z,12
2017-04-07T04:35:29.505Z,12
2017-04-07T04:36:09.944Z,16
2017-04-07T04:36:50.452Z,16
2017-04-07T04:37:30.937Z,20
2017-04-07T04:38:11.431Z,24
2017-04-07T04:38:51.964Z,28
2017-04-07T04:39:32.500Z,28
2017-04-07T04:40:13.012Z,32
2017-04-07T04:40:53.469Z,36
2017-04-07T04:41:34.035Z,36
2017-04-07T04:42:14.554Z,40
2017-04-07T04:42:55.005Z,44
2017-04-07T04:43:35.509Z,48
2017-04-07T04:44:15.986Z,48
2017-04-07T04:44:56.500Z,56
2017-04-07T04:45:36.970Z,60
2017-04-07T04:46:17.443Z,64
2017-04-07T04:46:57.942Z,68
2017-04-07T04:47:38.438Z,76
2017-04-07T04:48:18.915Z,80
2017-04-07T04:48:59.443Z,88
2017-04-07T04:49:39.889Z,92
2017-04-07T04:50:20.374Z,100
2017-04-07T04:51:00.869Z,104
2017-04-07T04:51:41.391Z,116
2017-04-07T04:52:21.854Z,124
2017-04-07T04:53:02.331Z,132
2017-04-07T04:53:42.847Z,136
2017-04-07T04:54:23.350Z,148
2017-04-07T04:55:03.823Z,156
2017-04-07T04:55:44.312Z,168
2017-04-07T04:56:24.877Z,176
2017-04-07T04:57:05.353Z,188
2017-04-07T04:57:45.824Z,200
2017-04-07T04:58:26.321Z,212
2017-04-07T04:59:06.852Z,224
2017-04-07T04:59:47.322Z,232
2017-04-07T05:00:27.811Z,248
2017-04-07T05:01:08.381Z,260
2017-04-07T05:01:48.813Z,276
2017-04-07T05:02:29.319Z,292
2017-04-07T05:03:09.771Z,308
2017-04-07T05:03:50.235Z,320
2017-04-07T05:04:30.737Z,336
2017-04-07T05:05:11.214Z,356
2017-04-07T05:05:51.690Z,376
2017-04-07T05:06:32.197Z,392
2017-04-07T05:07:12.674Z,416
2017-04-07T05:07:53.181Z,440
2017-04-07T05:08:33.670Z,464
2017-04-07T05:09:14.212Z,488
2017-04-07T05:09:54.663Z,520
2017-04-07T05:10:35.184Z,548
2017-04-07T05:11:15.630Z,572
2017-04-07T05:11:56.132Z,596
2017-04-07T05:12:36.659Z,624
2017-04-07T05:13:17.153Z,652
2017-04-07T05:13:57.632Z,672
2017-04-07T05:14:38.112Z,704
2017-04-07T05:15:18.584Z,724
2017-04-07T05:15:59.142Z,748
2017-04-07T05:16:39.588Z,772
2017-04-07T05:17:20.203Z,792
2017-04-07T05:18:00.726Z,812
2017-04-07T05:18:41.140Z,840
2017-04-07T05:19:21.593Z,868
2017-04-07T05:20:02.107Z,884
2017-04-07T05:20:42.641Z,900
2017-04-07T05:21:23.206Z,924
2017-04-07T05:22:03.751Z,944
2017-04-07T05:22:44.304Z,972
2017-04-07T05:23:24.759Z,1004
2017-04-07T05:24:05.225Z,1036
2017-04-07T05:24:45.730Z,1072
2017-04-07T05:25:26.297Z,1104
2017-04-07T05:26:06.853Z,1140
2017-04-07T05:26:47.347Z,1176
2017-04-07T05:27:27.840Z,1212
2017-04-07T05:28:08.403Z,1248
2017-04-07T05:28:48.872Z,1288
2017-04-07T05:29:29.412Z,1328
2017-04-07T05:30:09.914Z,1364
2017-04-07T05:30:50.363Z,1400
2017-04-07T05:31:30.891Z,1444
2017-04-07T05:32:11.393Z,1500
2017-04-07T05:32:51.993Z,1552
2017-04-07T05:33:32.511Z,1592
2017-04-07T05:34:13.013Z,1628
2017-04-07T05:34:53.495Z,1664
2017-04-07T05:35:34.009Z,1704
2017-04-07T05:36:14.484Z,1740
2017-04-07T05:36:54.951Z,1768
2017-04-07T05:37:35.493Z,1792
2017-04-07T05:38:15.962Z,1812
2017-04-07T05:38:56.456Z,1828
2017-04-07T05:39:37.195Z,1836
2017-04-07T05:40:17.937Z,1848
2017-04-07T05:40:58.418Z,1848
2017-04-07T05:41:38.887Z,1856
2017-04-07T05:42:19.454Z,1880
2017-04-07T05:42:59.878Z,1912
2017-04-07T05:43:40.352Z,1944
2017-04-07T05:44:20.834Z,1984
2017-04-07T05:45:01.340Z,2032
2017-04-07T05:45:41.802Z,2080
2017-04-07T05:46:22.362Z,2128
2017-04-07T05:47:02.795Z,2184
2017-04-07T05:47:43.315Z,2228
2017-04-07T05:48:23.949Z,2280
2017-04-07T05:49:04.672Z,2320
2017-04-07T05:49:45.159Z,2340
2017-04-07T05:50:27.854Z,2368
2017-04-07T05:51:08.082Z,2396
2017-04-07T05:51:48.996Z,2420
2017-04-07T05:52:29.188Z,2440
2017-04-07T05:53:09.756Z,2464
2017-04-07T05:53:50.258Z,2480
2017-04-07T05:54:30.768Z,2488
2017-04-07T05:55:11.205Z,2500
2017-04-07T05:55:51.726Z,2516
2017-04-07T05:56:32.212Z,2540
2017-04-07T05:57:12.694Z,2572
2017-04-07T05:57:53.140Z,2608
2017-04-07T05:58:33.773Z,2652
2017-04-07T05:59:14.311Z,2688
2017-04-07T05:59:54.821Z,2720
2017-04-07T06:00:35.298Z,2740
2017-04-07T06:01:15.770Z,2756
2017-04-07T06:01:56.237Z,2760
2017-04-07T06:02:36.781Z,2752
2017-04-07T06:03:17.266Z,2740
2017-04-07T06:03:57.737Z,2716
2017-04-07T06:04:38.250Z,2688
2017-04-07T06:05:18.701Z,2672
2017-04-07T06:05:59.240Z,2684
2017-04-07T06:06:39.728Z,2676
2017-04-07T06:07:20.261Z,2652
2017-04-07T06:08:00.720Z,2620
2017-04-07T06:08:41.245Z,2624
2017-04-07T06:09:21.736Z,2612
2017-04-07T06:10:02.533Z,2624
2017-04-07T06:10:43.118Z,2636
2017-04-07T06:11:23.598Z,2636
2017-04-07T06:12:04.112Z,2644
2017-04-07T06:12:44.653Z,2664
2017-04-07T06:13:25.122Z,2712
2017-04-07T06:14:05.638Z,2720
2017-04-07T06:14:46.147Z,2700
2017-04-07T06:15:26.613Z,2696
2017-04-07T06:16:07.113Z,2756
2017-04-07T06:16:47.607Z,2820
2017-04-07T06:17:28.085Z,2888
2017-04-07T06:18:08.549Z,2916
2017-04-07T06:18:49.052Z,2924
2017-04-07T06:19:29.550Z,2936
2017-04-07T06:20:10.057Z,2984
2017-04-07T06:20:50.527Z,3072
2017-04-07T06:21:31.010Z,3132
2017-04-07T06:22:11.489Z,3192
2017-04-07T06:22:51.991Z,3220
2017-04-07T06:23:32.510Z,3244
2017-04-07T06:24:12.970Z,3256
2017-04-07T06:24:53.473Z,3268
2017-04-07T06:25:33.933Z,3264
2017-04-07T06:26:14.412Z,3248
2017-04-07T06:26:54.896Z,3256
2017-04-07T06:27:35.387Z,3304
2017-04-07T06:28:15.848Z,3344
2017-04-07T06:28:56.343Z,3364
2017-04-07T06:29:36.828Z,3380
2017-04-07T06:30:17.341Z,3404
2017-04-07T06:31:00.274Z,3412
2017-04-07T06:31:40.574Z,3444
2017-04-07T06:32:21.028Z,3552
2017-04-07T06:33:01.491Z,3636
2017-04-07T06:33:42.066Z,3688
2017-04-07T06:34:22.582Z,3744
2017-04-07T06:35:03.088Z,3804
2017-04-07T06:35:43.544Z,3828
2017-04-07T06:36:23.995Z,3844
2017-04-07T06:37:04.518Z,3824
2017-04-07T06:37:45.092Z,3788
2017-04-07T06:38:25.535Z,3756
2017-04-07T06:39:06.005Z,3712
2017-04-07T06:39:46.541Z,3660
2017-04-07T06:40:27.061Z,3600
2017-04-07T06:43:00.690Z,3760
2017-04-07T06:43:41.224Z,3748
2017-04-07T06:44:21.686Z,3684
2017-04-07T06:45:02.416Z,3668
2017-04-07T06:45:42.914Z,3660
2017-04-07T06:46:23.429Z,3652
2017-04-07T06:47:03.888Z,3632
2017-04-07T06:47:44.358Z,3636
2017-04-07T06:48:24.894Z,3572
2017-04-07T06:49:05.345Z,3456
2017-04-07T06:49:45.882Z,3328
2017-04-07T06:50:26.362Z,3212
2017-04-07T06:51:06.880Z,3120
2017-04-07T06:51:47.371Z,3040
2017-04-07T06:52:27.794Z,2944
2017-04-07T06:53:08.317Z,2904
2017-04-07T06:53:48.803Z,3012
2017-04-07T06:54:29.289Z,3148
2017-04-07T06:55:09.793Z,3208
2017-04-07T06:55:50.264Z,3292
2017-04-07T06:56:30.766Z,3288
2017-04-07T06:57:11.247Z,3252
2017-04-07T06:57:51.775Z,3236
2017-04-07T06:58:32.281Z,3276
2017-04-07T06:59:12.822Z,3420
2017-04-07T06:59:53.260Z,3580
2017-04-07T07:00:33.793Z,3692
2017-04-07T07:01:14.339Z,3724
2017-04-07T07:01:54.775Z,3812
2017-04-07T07:02:35.232Z,3892
2017-04-07T07:03:15.739Z,3972
2017-04-07T07:03:56.241Z,4004
2017-04-07T07:04:36.708Z,3968
2017-04-07T07:05:17.251Z,3840
2017-04-07T07:05:57.778Z,3596
2017-04-07T07:06:38.205Z,3724
2017-04-07T07:07:18.689Z,3864
2017-04-07T07:07:59.265Z,3952
2017-04-07T07:08:39.677Z,4108
2017-04-07T07:09:20.336Z,4288
2017-04-07T07:10:00.783Z,4452
2017-04-07T07:10:41.389Z,4532
2017-04-07T07:11:21.786Z,4584
2017-04-07T07:12:02.317Z,4652
2017-04-07T07:12:42.817Z,4588
2017-04-07T07:13:23.245Z,4624
2017-04-07T07:14:03.786Z,4652
2017-04-07T07:14:44.270Z,4620
2017-04-07T07:15:24.795Z,4520
2017-04-07T07:16:05.273Z,4496
2017-04-07T07:16:45.776Z,4428
2017-04-07T07:17:26.309Z,4444
2017-04-07T07:18:06.840Z,4480
2017-04-07T07:18:47.232Z,4560
2017-04-07T07:19:27.716Z,4548
2017-04-07T07:20:08.229Z,4552
2017-04-07T07:20:48.749Z,4476
2017-04-07T07:21:29.216Z,4428
2017-04-07T07:22:09.685Z,4376
2017-04-07T07:22:50.170Z,4420
2017-04-07T07:23:30.694Z,4492
2017-04-07T07:24:11.193Z,4456
2017-04-07T07:24:51.700Z,4488
2017-04-07T07:25:32.133Z,4528
2017-04-07T07:26:12.707Z,4536
2017-04-07T07:26:53.203Z,4532
2017-04-07T07:27:33.648Z,4520
2017-04-07T07:28:14.173Z,4500
2017-04-07T07:28:54.697Z,4484
2017-04-07T07:29:35.159Z,4456
2017-04-07T07:30:15.597Z,4452
2017-04-07T07:30:56.137Z,4440
2017-04-07T07:31:36.657Z,4428
2017-04-07T07:32:17.176Z,4416
2017-04-07T07:32:57.709Z,4388
2017-04-07T07:33:38.198Z,4376
2017-04-07T07:34:18.689Z,4368
2017-04-07T07:34:59.205Z,4344
2017-04-07T07:35:39.759Z,4328
2017-04-07T07:36:20.176Z,4316
2017-04-07T07:37:00.645Z,4304
2017-04-07T07:37:41.133Z,4292
2017-04-07T07:38:21.634Z,4272
2017-04-07T07:39:02.057Z,4260
2017-04-07T07:39:42.569Z,4228
2017-04-07T07:40:23.036Z,4228
2017-04-07T07:41:03.569Z,4208
2017-04-07T07:41:44.181Z,4196
2017-04-07T07:42:24.642Z,4168
2017-04-07T07:43:05.134Z,4168
2017-04-07T07:43:45.702Z,4148
2017-04-07T07:44:26.087Z,4140
2017-04-07T07:45:06.589Z,4112
2017-04-07T07:45:47.066Z,4104
2017-04-07T07:46:27.533Z,4080
2017-04-07T07:47:08.049Z,4064
2017-04-07T07:47:48.562Z,4036
2017-04-07T07:48:29.095Z,4016
2017-04-07T07:49:09.581Z,3980
2017-04-07T07:49:50.064Z,3908
2017-04-07T07:50:30.628Z,3824
2017-04-07T07:51:11.056Z,3740
2017-04-07T07:51:51.563Z,3700
2017-04-07T07:52:32.026Z,3668
2017-04-07T07:53:12.552Z,3652
2017-04-07T07:53:53.070Z,3656
2017-04-07T07:54:33.581Z,3636
2017-04-07T07:55:14.073Z,3644
2017-04-07T07:55:54.595Z,3636
2017-04-07T07:56:35.064Z,3620
2017-04-07T07:57:15.541Z,3608
2017-04-07T07:57:56.013Z,3592
2017-04-07T07:58:36.573Z,3572
2017-04-07T07:59:17.024Z,3560
2017-04-07T07:59:57.549Z,3540
2017-04-07T08:00:38.015Z,3536
2017-04-07T08:01:18.557Z,3500
2017-04-07T08:01:59.008Z,3500
2017-04-07T08:02:39.550Z,3484
2017-04-07T08:03:20.007Z,3464
2017-04-07T08:04:00.480Z,3444
2017-04-07T08:04:40.997Z,3432
2017-04-07T08:05:21.474Z,3408
2017-04-07T08:06:01.954Z,3400
2017-04-07T08:06:42.428Z,3388
2017-04-07T08:07:22.909Z,3372
2017-04-07T08:08:03.452Z,3356
2017-04-07T08:08:43.945Z,3344
2017-04-07T08:09:24.513Z,3332
2017-04-07T08:10:05.012Z,3316
2017-04-07T08:10:45.506Z,3308
2017-04-07T08:11:26.062Z,3296
2017-04-07T08:12:06.576Z,3300
2017-04-07T08:12:47.094Z,3280
2017-04-07T08:13:27.575Z,3268
2017-04-07T08:14:08.053Z,3268
2017-04-07T08:14:48.548Z,3252
2017-04-07T08:15:29.216Z,3244
2017-04-07T08:17:48.423Z,3220
2017-04-07T08:18:28.797Z,3212
2017-04-07T08:19:09.302Z,3200
2017-04-07T08:19:49.807Z,3192
2017-04-07T08:20:30.291Z,3184
2017-04-07T08:21:10.785Z,3180
2017-04-07T08:21:51.283Z,3184
2017-04-07T08:22:31.791Z,3172
2017-04-07T08:23:12.266Z,3152
2017-04-07T08:23:52.782Z,3148
2017-04-07T08:24:33.228Z,3144
2017-04-07T08:25:13.704Z,3132
2017-04-07T08:25:54.220Z,3136
2017-04-07T08:26:34.872Z,3132
2017-04-07T08:27:15.310Z,3124
2017-04-07T08:27:55.748Z,3104
2017-04-07T08:28:36.248Z,3108
2017-04-07T08:29:16.740Z,3096
2017-04-07T08:29:57.252Z,3096
2017-04-07T08:30:37.738Z,3092
2017-04-07T08:31:18.387Z,3088
2017-04-07T08:31:58.899Z,3084
2017-04-07T08:32:39.356Z,3080
2017-04-07T08:33:19.812Z,3072
2017-04-07T08:34:00.349Z,3060
2017-04-07T08:34:40.853Z,3040
2017-04-07T08:35:21.358Z,3028
2017-04-07T08:36:01.820Z,3028
2017-04-07T08:36:42.376Z,3024
2017-04-07T08:37:22.804Z,3032
2017-04-07T08:38:03.263Z,3028
2017-04-07T08:38:43.805Z,3036
2017-04-07T08:39:24.250Z,3012
2017-04-07T08:40:04.777Z,3008
2017-04-07T08:40:45.249Z,3012
2017-04-07T08:41:25.756Z,3012
2017-04-07T08:42:06.258Z,3020
2017-04-07T08:42:46.772Z,3024
2017-04-07T08:43:27.271Z,3024
2017-04-07T08:44:07.780Z,3032
2017-04-07T08:44:48.256Z,3032
2017-04-07T08:45:28.770Z,3028
2017-04-07T08:46:09.387Z,3028
2017-04-07T08:46:49.875Z,3036
2017-04-07T08:47:30.371Z,3008
2017-04-07T08:48:10.873Z,3016
2017-04-07T08:48:51.352Z,3028
2017-04-07T08:49:31.864Z,3024
2017-04-07T08:50:12.401Z,3000
2017-04-07T08:50:52.867Z,3000
2017-04-07T08:51:33.419Z,2996
2017-04-07T08:52:13.883Z,3004
2017-04-07T08:52:54.372Z,2996
2017-04-07T08:53:34.886Z,2992
2017-04-07T08:54:15.431Z,2996
2017-04-07T08:54:55.933Z,2992
2017-04-07T08:55:36.575Z,2992
2017-04-07T08:56:20.558Z,2988
2017-04-07T08:58:58.428Z,2980
2017-04-07T08:59:37.938Z,2972
2017-04-07T09:00:19.371Z,2980
2017-04-07T09:01:00.017Z,2964
2017-04-07T09:01:41.392Z,2944
2017-04-07T09:02:21.961Z,2952
2017-04-07T09:03:02.469Z,2952
2017-04-07T09:03:42.955Z,2936
2017-04-07T09:04:23.468Z,2928
2017-04-07T09:05:04.036Z,2920
2017-04-07T09:05:44.511Z,2920
2017-04-07T09:06:24.955Z,2904
2017-04-07T09:07:05.581Z,2892
2017-04-07T09:07:46.114Z,2884
2017-04-07T09:08:26.681Z,2872
2017-04-07T09:09:07.205Z,2856
2017-04-07T09:09:47.705Z,2840
2017-04-07T09:10:28.186Z,2840
2017-04-07T09:11:08.714Z,2824
2017-04-07T09:11:49.259Z,2816
2017-04-07T09:12:29.699Z,2796
2017-04-07T09:13:10.163Z,2780
2017-04-07T09:13:50.703Z,2772
2017-04-07T09:14:31.259Z,2756
2017-04-07T09:15:11.790Z,2728
2017-04-07T09:15:52.281Z,2740
2017-04-07T09:16:32.792Z,2724
2017-04-07T09:17:13.257Z,2736
2017-04-07T09:17:53.741Z,2732
2017-04-07T09:18:34.310Z,2728
2017-04-07T09:19:14.783Z,2732
2017-04-07T09:19:55.308Z,2740
2017-04-07T09:20:35.815Z,2728
2017-04-07T09:21:16.322Z,2732
2017-04-07T09:21:56.780Z,2720
2017-04-07T09:22:37.316Z,2716
2017-04-07T09:23:17.875Z,2732
2017-04-07T09:23:58.382Z,2716
2017-04-07T09:24:38.867Z,2712
2017-04-07T09:25:19.403Z,2708
2017-04-07T09:25:59.809Z,2696
2017-04-07T09:26:40.331Z,2696
2017-04-07T09:27:20.832Z,2688
2017-04-07T09:28:01.312Z,2676
2017-04-07T09:28:41.805Z,2648
2017-04-07T09:29:22.294Z,2644
2017-04-07T09:30:02.820Z,2632
2017-04-07T09:30:43.310Z,2616
2017-04-07T09:31:23.817Z,2632
2017-04-07T09:32:04.311Z,2612
2017-04-07T09:32:44.802Z,2604
2017-04-07T09:33:25.276Z,2604
2017-04-07T09:34:05.786Z,2588
2017-04-07T09:34:46.309Z,2580
2017-04-07T09:35:26.822Z,2572
2017-04-07T09:36:07.291Z,2560
2017-04-07T09:36:47.822Z,2540
2017-04-07T09:37:28.272Z,2520